createdAt,value
2022-12-15T00:00:25.814Z,951.06
2022-12-15T00:01:24.783Z,951.10
2022-12-15T00:02:24.851Z,951.15
2022-12-15T00:03:24.856Z,951.11
2022-12-15T00:04:24.738Z,951.09
2022-12-15T00:05:24.708Z,951.12
2022-12-15T00:06:24.770Z,951.12
2022-12-15T00:07:24.691Z,951.16
2022-12-15T00:08:24.691Z,951.18
2022-12-15T00:09:29.309Z,951.25
2022-12-15T00:10:25.654Z,951.25
2022-12-15T00:11:24.645Z,951.21
2022-12-15T00:12:24.652Z,951.26
2022-12-15T00:13:24.646Z,951.29
2022-12-15T00:14:24.621Z,951.28
2022-12-15T00:15:24.630Z,951.27
2022-12-15T00:16:24.735Z,951.23
2022-12-15T00:17:24.648Z,951.23
2022-12-15T00:18:24.580Z,951.28
2022-12-15T00:19:24.572Z,951.28
2022-12-15T00:20:24.581Z,951.18
2022-12-15T00:21:24.569Z,951.17
2022-12-15T00:22:24.527Z,951.28
2022-12-15T00:23:24.520Z,951.29
2022-12-15T00:24:24.544Z,951.30
2022-12-15T00:25:24.490Z,951.30
2022-12-15T00:26:24.498Z,951.28
2022-12-15T00:27:24.473Z,951.25
2022-12-15T00:28:24.457Z,951.28
2022-12-15T00:29:24.451Z,951.27
2022-12-15T00:30:24.457Z,951.25
2022-12-15T00:31:24.457Z,951.28
2022-12-15T00:32:24.468Z,951.31
2022-12-15T00:33:24.421Z,951.35
2022-12-15T00:34:24.392Z,951.40
2022-12-15T00:35:24.376Z,951.42
2022-12-15T00:36:24.395Z,951.35
2022-12-15T00:37:24.367Z,951.40
2022-12-15T00:38:24.371Z,951.31
2022-12-15T00:39:24.335Z,951.28
2022-12-15T00:40:24.327Z,951.24
2022-12-15T00:41:24.312Z,951.29
2022-12-15T00:42:24.386Z,951.33
2022-12-15T00:43:24.326Z,951.36
2022-12-15T00:44:24.296Z,951.33
2022-12-15T00:45:24.269Z,951.34
2022-12-15T00:46:24.298Z,951.41
2022-12-15T00:47:24.247Z,951.39
2022-12-15T00:48:24.271Z,951.43
2022-12-15T00:49:24.262Z,951.40
2022-12-15T00:50:24.228Z,951.40
2022-12-15T00:51:24.209Z,951.46
2022-12-15T00:52:24.192Z,951.46
2022-12-15T00:53:24.181Z,951.45
2022-12-15T00:54:24.194Z,951.46
2022-12-15T00:55:24.185Z,951.59
2022-12-15T00:56:24.160Z,951.48
2022-12-15T00:57:24.139Z,951.52
2022-12-15T00:58:24.124Z,951.48
2022-12-15T00:59:24.126Z,951.47
2022-12-15T01:00:24.138Z,951.45
2022-12-15T01:01:24.189Z,951.41
2022-12-15T01:02:24.212Z,951.49
2022-12-15T01:03:24.188Z,951.44
2022-12-15T01:04:24.060Z,951.45
2022-12-15T01:05:24.150Z,951.43
2022-12-15T01:06:24.057Z,951.43
2022-12-15T01:07:24.044Z,951.44
2022-12-15T01:08:24.026Z,951.33
2022-12-15T01:09:24.005Z,951.42
2022-12-15T01:10:24.011Z,951.42
2022-12-15T01:11:23.985Z,951.42
2022-12-15T01:12:24.012Z,951.44
2022-12-15T01:13:23.978Z,951.45
2022-12-15T01:14:23.949Z,951.53
2022-12-15T01:15:23.938Z,951.64
2022-12-15T01:16:23.995Z,951.61
2022-12-15T01:17:23.924Z,951.75
2022-12-15T01:18:23.953Z,951.72
2022-12-15T01:19:23.892Z,951.66
2022-12-15T01:20:23.881Z,951.61
2022-12-15T01:21:25.217Z,951.60
2022-12-15T01:22:23.860Z,951.59
2022-12-15T01:23:23.854Z,951.65
2022-12-15T01:24:23.881Z,951.65
2022-12-15T01:25:23.825Z,951.67
2022-12-15T01:26:23.822Z,951.70
2022-12-15T01:27:23.802Z,951.75
2022-12-15T01:28:23.809Z,951.68
2022-12-15T01:29:23.791Z,951.74
2022-12-15T01:30:23.804Z,951.71
2022-12-15T01:31:23.829Z,951.74
2022-12-15T01:32:23.748Z,951.70
2022-12-15T01:33:23.738Z,951.77
2022-12-15T01:34:23.727Z,951.75
2022-12-15T01:35:23.741Z,951.78
2022-12-15T01:36:23.743Z,951.80
2022-12-15T01:37:23.720Z,951.84
2022-12-15T01:38:23.682Z,951.86
2022-12-15T01:39:23.677Z,951.88
2022-12-15T01:40:23.671Z,951.92
2022-12-15T01:41:23.656Z,951.93
2022-12-15T01:42:23.689Z,951.94
2022-12-15T01:43:23.630Z,951.93
2022-12-15T01:44:23.617Z,951.87
2022-12-15T01:45:23.620Z,951.87
2022-12-15T01:46:23.700Z,951.95
2022-12-15T01:47:23.605Z,951.87
2022-12-15T01:48:23.573Z,951.93
2022-12-15T01:49:23.577Z,951.83
2022-12-15T01:50:23.550Z,951.84
2022-12-15T01:51:23.555Z,951.86
2022-12-15T01:52:23.538Z,951.84
2022-12-15T01:53:23.535Z,951.88
2022-12-15T01:54:23.507Z,951.88
2022-12-15T01:55:23.514Z,951.90
2022-12-15T01:56:23.491Z,951.91
2022-12-15T01:57:23.498Z,951.89
2022-12-15T01:58:23.478Z,951.94
2022-12-15T01:59:23.448Z,951.89
2022-12-15T02:00:23.522Z,951.96
2022-12-15T02:01:23.655Z,951.91
2022-12-15T02:02:23.598Z,951.96
2022-12-15T02:03:23.504Z,952.02
2022-12-15T02:04:23.405Z,952.01
2022-12-15T02:05:23.384Z,951.98
2022-12-15T02:06:23.372Z,952.01
2022-12-15T02:07:23.382Z,951.98
2022-12-15T02:08:23.373Z,952.01
2022-12-15T02:09:23.368Z,952.02
2022-12-15T02:10:23.350Z,951.95
2022-12-15T02:11:23.316Z,952.01
2022-12-15T02:12:23.307Z,952.09
2022-12-15T02:13:23.294Z,952.06
2022-12-15T02:14:23.325Z,951.97
2022-12-15T02:15:23.296Z,952.07
2022-12-15T02:16:23.367Z,952.02
2022-12-15T02:17:23.249Z,951.95
2022-12-15T02:18:23.241Z,951.94
2022-12-15T02:19:23.234Z,951.92
2022-12-15T02:20:23.266Z,951.87
2022-12-15T02:21:23.214Z,951.88
2022-12-15T02:22:23.214Z,951.98
2022-12-15T02:23:23.183Z,952.03
2022-12-15T02:24:23.175Z,952.13
2022-12-15T02:25:23.210Z,952.19
2022-12-15T02:26:23.177Z,952.23
2022-12-15T02:27:23.150Z,952.13
2022-12-15T02:28:23.160Z,952.16
2022-12-15T02:29:23.117Z,952.08
2022-12-15T02:30:23.110Z,952.15
2022-12-15T02:31:23.211Z,952.18
2022-12-15T02:32:23.117Z,952.12
2022-12-15T02:33:23.086Z,952.15
2022-12-15T02:34:23.065Z,952.09
2022-12-15T02:35:23.052Z,952.11
2022-12-15T02:36:23.043Z,952.14
2022-12-15T02:37:23.059Z,952.14
2022-12-15T02:38:23.050Z,952.17
2022-12-15T02:39:23.028Z,952.14
2022-12-15T02:40:23.033Z,952.28
2022-12-15T02:41:23.018Z,952.30
2022-12-15T02:42:23.000Z,952.36
2022-12-15T02:43:22.964Z,952.35
2022-12-15T02:44:22.993Z,952.39
2022-12-15T02:45:23.041Z,952.39
2022-12-15T02:46:22.932Z,952.48
2022-12-15T02:47:22.919Z,952.45
2022-12-15T02:48:22.928Z,952.44
2022-12-15T02:49:22.904Z,952.50
2022-12-15T02:50:22.931Z,952.49
2022-12-15T02:51:22.875Z,952.51
2022-12-15T02:52:22.866Z,952.50
2022-12-15T02:53:22.868Z,952.51
2022-12-15T02:54:22.861Z,952.44
2022-12-15T02:55:22.841Z,952.49
2022-12-15T02:56:22.868Z,952.45
2022-12-15T02:57:22.877Z,952.50
2022-12-15T02:58:22.800Z,952.48
2022-12-15T02:59:22.787Z,952.53
2022-12-15T03:00:22.793Z,952.52
2022-12-15T03:01:22.871Z,952.51
2022-12-15T03:02:22.855Z,952.51
2022-12-15T03:03:22.866Z,952.52
2022-12-15T03:04:22.738Z,952.48
2022-12-15T03:05:22.729Z,952.52
2022-12-15T03:06:22.744Z,952.56
2022-12-15T03:07:22.718Z,952.59
2022-12-15T03:08:22.731Z,952.66
2022-12-15T03:09:22.685Z,952.59
2022-12-15T03:10:22.670Z,952.66
2022-12-15T03:11:22.668Z,952.63
2022-12-15T03:12:22.651Z,952.68
2022-12-15T03:13:22.677Z,952.66
2022-12-15T03:14:22.659Z,952.67
2022-12-15T03:15:22.616Z,952.78
2022-12-15T03:16:22.690Z,952.74
2022-12-15T03:17:22.602Z,952.78
2022-12-15T03:18:22.587Z,952.79
2022-12-15T03:19:22.582Z,952.80
2022-12-15T03:20:22.597Z,952.81
2022-12-15T03:21:22.548Z,952.78
2022-12-15T03:22:22.663Z,952.82
2022-12-15T03:23:22.544Z,952.88
2022-12-15T03:24:22.525Z,952.85
2022-12-15T03:25:22.520Z,952.93
2022-12-15T03:26:22.545Z,952.90
2022-12-15T03:27:22.491Z,952.88
2022-12-15T03:28:22.491Z,952.85
2022-12-15T03:29:22.482Z,952.85
2022-12-15T03:30:22.469Z,952.88
2022-12-15T03:31:22.506Z,952.87
2022-12-15T03:32:22.487Z,952.83
2022-12-15T03:33:22.416Z,952.87
2022-12-15T03:34:22.412Z,952.88
2022-12-15T03:35:22.424Z,952.86
2022-12-15T03:36:22.389Z,952.80
2022-12-15T03:37:22.371Z,952.78
2022-12-15T03:38:22.382Z,952.85
2022-12-15T03:39:22.351Z,952.87
2022-12-15T03:40:22.363Z,952.88
2022-12-15T03:41:22.335Z,952.83
2022-12-15T03:42:22.335Z,952.92
2022-12-15T03:43:22.308Z,952.87
2022-12-15T03:44:22.317Z,952.79
2022-12-15T03:45:22.335Z,952.85
2022-12-15T03:46:22.345Z,952.83
2022-12-15T03:47:22.273Z,952.84
2022-12-15T03:48:22.267Z,952.87
2022-12-15T03:49:22.249Z,952.87
2022-12-15T03:50:22.250Z,952.91
2022-12-15T03:51:22.219Z,952.90
2022-12-15T03:52:22.211Z,952.94
2022-12-15T03:53:22.214Z,952.93
2022-12-15T03:54:22.209Z,952.90
2022-12-15T03:55:22.180Z,952.91
2022-12-15T03:56:22.178Z,952.93
2022-12-15T03:57:22.169Z,952.95
2022-12-15T03:58:22.147Z,952.95
2022-12-15T03:59:22.149Z,952.97
2022-12-15T04:00:22.122Z,953.03
2022-12-15T04:01:22.257Z,953.01
2022-12-15T04:02:22.331Z,953.02
2022-12-15T04:03:22.137Z,952.97
2022-12-15T04:04:22.103Z,952.90
2022-12-15T04:05:22.081Z,952.82
2022-12-15T04:06:22.060Z,952.85
2022-12-15T04:07:22.049Z,952.92
2022-12-15T04:08:22.057Z,952.92
2022-12-15T04:09:22.047Z,952.94
2022-12-15T04:10:22.018Z,952.99
2022-12-15T04:11:22.019Z,953.02
2022-12-15T04:12:21.990Z,953.05
2022-12-15T04:13:21.990Z,953.04
2022-12-15T04:14:21.990Z,952.95
2022-12-15T04:15:21.972Z,952.98
2022-12-15T04:16:30.691Z,953.06
2022-12-15T04:17:21.951Z,953.05
2022-12-15T04:18:21.933Z,953.08
2022-12-15T04:19:21.916Z,953.09
2022-12-15T04:20:21.909Z,953.17
2022-12-15T04:21:21.921Z,953.15
2022-12-15T04:22:21.895Z,953.13
2022-12-15T04:23:21.920Z,953.14
2022-12-15T04:24:21.859Z,953.10
2022-12-15T04:25:21.850Z,953.07
2022-12-15T04:26:22.016Z,953.10
2022-12-15T04:27:21.830Z,953.05
2022-12-15T04:28:21.838Z,953.08
2022-12-15T04:29:21.851Z,953.06
2022-12-15T04:30:21.794Z,953.01
2022-12-15T04:31:21.876Z,952.96
2022-12-15T04:32:21.811Z,952.93
2022-12-15T04:33:25.116Z,952.91
2022-12-15T04:34:22.755Z,952.90
2022-12-15T04:35:21.738Z,952.97
2022-12-15T04:36:21.741Z,953.01
2022-12-15T04:37:21.734Z,952.98
2022-12-15T04:38:21.731Z,952.97
2022-12-15T04:39:21.707Z,952.97
2022-12-15T04:40:21.699Z,953.03
2022-12-15T04:41:21.705Z,953.04
2022-12-15T04:42:21.665Z,953.10
2022-12-15T04:43:21.665Z,953.05
2022-12-15T04:44:21.658Z,953.08
2022-12-15T04:45:21.673Z,953.11
2022-12-15T04:46:21.713Z,953.09
2022-12-15T04:47:21.619Z,953.03
2022-12-15T04:48:21.623Z,953.02
2022-12-15T04:49:21.688Z,953.00
2022-12-15T04:50:21.578Z,953.03
2022-12-15T04:51:23.849Z,953.09
2022-12-15T04:52:21.555Z,953.15
2022-12-15T04:53:21.545Z,953.07
2022-12-15T04:54:21.563Z,953.11
2022-12-15T04:55:21.576Z,953.12
2022-12-15T04:56:21.511Z,953.13
2022-12-15T04:57:21.511Z,953.20
2022-12-15T04:58:21.488Z,953.12
2022-12-15T04:59:21.486Z,953.15
2022-12-15T05:00:21.477Z,953.17
2022-12-15T05:01:21.609Z,953.14
2022-12-15T05:02:21.691Z,953.14
2022-12-15T05:03:21.452Z,953.16
2022-12-15T05:04:21.553Z,953.25
2022-12-15T05:05:21.411Z,953.26
2022-12-15T05:06:21.399Z,953.33
2022-12-15T05:07:21.426Z,953.32
2022-12-15T05:08:21.388Z,953.40
2022-12-15T05:09:21.425Z,953.35
2022-12-15T05:10:21.358Z,953.33
2022-12-15T05:11:21.346Z,953.38
2022-12-15T05:12:21.334Z,953.35
2022-12-15T05:13:21.346Z,953.37
2022-12-15T05:14:21.350Z,953.44
2022-12-15T05:15:21.330Z,953.41
2022-12-15T05:16:21.343Z,953.37
2022-12-15T05:17:21.387Z,953.45
2022-12-15T05:18:21.288Z,953.45
2022-12-15T05:19:21.290Z,953.49
2022-12-15T05:20:21.383Z,953.49
2022-12-15T05:21:21.237Z,953.43
2022-12-15T05:22:21.224Z,953.40
2022-12-15T05:23:21.223Z,953.42
2022-12-15T05:24:21.230Z,953.39
2022-12-15T05:25:21.217Z,953.34
2022-12-15T05:26:21.191Z,953.39
2022-12-15T05:27:21.203Z,953.37
2022-12-15T05:28:21.159Z,953.37
2022-12-15T05:29:21.158Z,953.42
2022-12-15T05:30:21.148Z,953.35
2022-12-15T05:31:21.211Z,953.44
2022-12-15T05:32:21.145Z,953.44
2022-12-15T05:33:21.108Z,953.48
2022-12-15T05:34:21.110Z,953.46
2022-12-15T05:35:21.100Z,953.47
2022-12-15T05:36:21.088Z,953.53
2022-12-15T05:37:21.082Z,953.49
2022-12-15T05:38:21.075Z,953.53
2022-12-15T05:39:21.064Z,953.46
2022-12-15T05:40:21.030Z,953.49
2022-12-15T05:41:21.039Z,953.53
2022-12-15T05:42:21.044Z,953.62
2022-12-15T05:43:26.165Z,953.68
2022-12-15T05:44:21.993Z,953.82
2022-12-15T05:45:20.976Z,953.81
2022-12-15T05:46:21.034Z,953.89
2022-12-15T05:47:20.958Z,953.94
2022-12-15T05:48:20.983Z,953.96
2022-12-15T05:49:20.978Z,953.98
2022-12-15T05:50:20.921Z,954.01
2022-12-15T05:51:20.911Z,954.04
2022-12-15T05:52:20.932Z,954.03
2022-12-15T05:53:20.914Z,954.00
2022-12-15T05:54:20.980Z,954.01
2022-12-15T05:55:20.919Z,953.95
2022-12-15T05:56:20.891Z,953.86
2022-12-15T05:57:20.844Z,953.85
2022-12-15T05:58:20.846Z,953.86
2022-12-15T05:59:20.922Z,953.81
2022-12-15T06:00:20.834Z,953.78
2022-12-15T06:01:20.853Z,953.79
2022-12-15T06:02:20.855Z,953.76
2022-12-15T06:03:20.779Z,953.81
2022-12-15T06:04:20.947Z,953.80
2022-12-15T06:05:20.793Z,953.78
2022-12-15T06:06:20.784Z,953.82
2022-12-15T06:07:20.753Z,953.90
2022-12-15T06:08:20.738Z,953.90
2022-12-15T06:09:20.841Z,954.00
2022-12-15T06:10:20.705Z,953.98
2022-12-15T06:11:20.695Z,954.01
2022-12-15T06:12:20.727Z,954.05
2022-12-15T06:13:20.667Z,954.05
2022-12-15T06:14:20.751Z,954.04
2022-12-15T06:15:20.650Z,953.99
2022-12-15T06:16:20.718Z,954.07
2022-12-15T06:17:20.629Z,954.06
2022-12-15T06:18:20.641Z,954.09
2022-12-15T06:19:20.733Z,954.17
2022-12-15T06:20:20.593Z,954.06
2022-12-15T06:21:20.591Z,954.14
2022-12-15T06:22:20.586Z,954.16
2022-12-15T06:23:20.593Z,954.24
2022-12-15T06:24:20.705Z,954.21
2022-12-15T06:25:20.570Z,954.19
2022-12-15T06:26:20.533Z,954.24
2022-12-15T06:27:20.521Z,954.13
2022-12-15T06:28:20.504Z,954.16
2022-12-15T06:29:20.611Z,954.18
2022-12-15T06:30:20.524Z,954.17
2022-12-15T06:31:20.491Z,954.26
2022-12-15T06:32:20.473Z,954.27
2022-12-15T06:33:20.455Z,954.28
2022-12-15T06:34:20.494Z,954.35
2022-12-15T06:35:20.444Z,954.33
2022-12-15T06:36:20.475Z,954.33
2022-12-15T06:37:20.427Z,954.33
2022-12-15T06:38:20.396Z,954.33
2022-12-15T06:39:20.395Z,954.36
2022-12-15T06:40:20.395Z,954.38
2022-12-15T06:41:20.492Z,954.39
2022-12-15T06:42:20.352Z,954.38
2022-12-15T06:43:20.389Z,954.32
2022-12-15T06:44:20.332Z,954.34
2022-12-15T06:45:20.356Z,954.32
2022-12-15T06:46:20.355Z,954.37
2022-12-15T06:47:20.310Z,954.31
2022-12-15T06:48:20.286Z,954.35
2022-12-15T06:49:20.334Z,954.31
2022-12-15T06:50:20.267Z,954.27
2022-12-15T06:51:20.286Z,954.30
2022-12-15T06:52:20.252Z,954.32
2022-12-15T06:53:20.259Z,954.26
2022-12-15T06:54:20.253Z,954.29
2022-12-15T06:55:20.231Z,954.30
2022-12-15T06:56:20.217Z,954.28
2022-12-15T06:57:20.190Z,954.29
2022-12-15T06:58:20.193Z,954.31
2022-12-15T06:59:20.197Z,954.35
2022-12-15T07:00:20.157Z,954.38
2022-12-15T07:01:20.390Z,954.37
2022-12-15T07:02:26.886Z,954.41
2022-12-15T07:03:21.336Z,954.47
2022-12-15T07:04:20.233Z,954.52
2022-12-15T07:05:20.129Z,954.50
2022-12-15T07:06:20.090Z,954.51
2022-12-15T07:07:20.113Z,954.56
2022-12-15T07:08:20.075Z,954.49
2022-12-15T07:09:20.063Z,954.52
2022-12-15T07:10:20.057Z,954.59
2022-12-15T07:11:20.062Z,954.62
2022-12-15T07:12:20.049Z,954.53
2022-12-15T07:13:20.041Z,954.59
2022-12-15T07:14:20.040Z,954.68
2022-12-15T07:15:19.998Z,954.70
2022-12-15T07:16:20.150Z,954.66
2022-12-15T07:17:19.974Z,954.65
2022-12-15T07:18:19.973Z,954.66
2022-12-15T07:19:19.978Z,954.64
2022-12-15T07:20:22.861Z,954.71
2022-12-15T07:21:21.607Z,954.70
2022-12-15T07:22:19.958Z,954.73
2022-12-15T07:23:29.666Z,954.77
2022-12-15T07:24:20.903Z,954.79
2022-12-15T07:25:19.919Z,954.72
2022-12-15T07:26:19.914Z,954.71
2022-12-15T07:27:19.877Z,954.72
2022-12-15T07:28:25.478Z,954.71
2022-12-15T07:29:23.525Z,954.78
2022-12-15T07:30:19.863Z,954.75
2022-12-15T07:31:19.917Z,954.72
2022-12-15T07:32:19.808Z,954.79
2022-12-15T07:33:19.816Z,954.76
2022-12-15T07:34:19.813Z,954.80
2022-12-15T07:35:19.786Z,954.82
2022-12-15T07:36:19.784Z,954.84
2022-12-15T07:37:19.767Z,954.84
2022-12-15T07:38:19.746Z,954.81
2022-12-15T07:39:19.754Z,954.89
2022-12-15T07:40:19.719Z,954.86
2022-12-15T07:41:19.786Z,954.90
2022-12-15T07:42:19.714Z,954.88
2022-12-15T07:43:19.700Z,954.82
2022-12-15T07:44:19.727Z,954.85
2022-12-15T07:45:19.681Z,954.78
2022-12-15T07:46:19.787Z,954.77
2022-12-15T07:47:19.653Z,954.71
2022-12-15T07:48:19.654Z,954.68
2022-12-15T07:49:19.642Z,954.71
2022-12-15T07:50:19.624Z,954.69
2022-12-15T07:51:20.270Z,954.63
2022-12-15T07:52:19.600Z,954.56
2022-12-15T07:53:19.580Z,954.53
2022-12-15T07:54:19.648Z,954.54
2022-12-15T07:55:32.477Z,954.59
2022-12-15T07:56:20.576Z,954.57
2022-12-15T07:57:19.536Z,954.56
2022-12-15T07:58:19.525Z,954.50
2022-12-15T07:59:19.522Z,954.47
2022-12-15T08:00:19.578Z,954.46
2022-12-15T08:01:19.654Z,954.50
2022-12-15T08:02:19.708Z,954.47
2022-12-15T08:03:19.662Z,954.49
2022-12-15T08:04:19.469Z,954.46
2022-12-15T08:05:19.479Z,954.42
2022-12-15T08:06:19.457Z,954.47
2022-12-15T08:07:19.448Z,954.47
2022-12-15T08:08:19.440Z,954.54
2022-12-15T08:09:19.408Z,954.51
2022-12-15T08:10:19.393Z,954.52
2022-12-15T08:11:19.400Z,954.49
2022-12-15T08:12:19.411Z,954.50
2022-12-15T08:13:45.003Z,954.51
2022-12-15T08:14:20.895Z,954.51
2022-12-15T08:15:19.340Z,954.49
2022-12-15T08:16:19.420Z,954.47
2022-12-15T08:17:19.340Z,954.44
2022-12-15T08:18:19.306Z,954.47
2022-12-15T08:19:19.311Z,954.49
2022-12-15T08:20:19.318Z,954.55
2022-12-15T08:21:19.277Z,954.54
2022-12-15T08:22:19.269Z,954.60
2022-12-15T08:23:19.256Z,954.62
2022-12-15T08:24:19.278Z,954.59
2022-12-15T08:25:19.236Z,954.64
2022-12-15T08:26:20.067Z,954.71
2022-12-15T08:27:19.217Z,954.74
2022-12-15T08:28:19.200Z,954.72
2022-12-15T08:30:20.191Z,954.74
2022-12-15T08:31:19.336Z,954.80
2022-12-15T08:32:19.266Z,954.77
2022-12-15T08:33:19.267Z,954.84
2022-12-15T08:34:19.154Z,954.83
2022-12-15T08:35:46.898Z,954.90
2022-12-15T08:36:20.143Z,955.05
2022-12-15T08:37:19.129Z,955.05
2022-12-15T08:38:19.086Z,955.04
2022-12-15T08:39:19.076Z,954.97
2022-12-15T08:40:19.088Z,954.97
2022-12-15T08:41:19.076Z,955.04
2022-12-15T08:42:19.057Z,955.11
2022-12-15T08:43:19.032Z,955.14
2022-12-15T08:44:19.031Z,955.14
2022-12-15T08:45:19.011Z,955.17
2022-12-15T08:46:19.059Z,955.16
2022-12-15T08:47:18.989Z,955.17
2022-12-15T08:48:19.016Z,955.22
2022-12-15T08:49:22.151Z,955.18
2022-12-15T08:50:18.954Z,955.26
2022-12-15T08:51:18.942Z,955.24
2022-12-15T08:52:18.971Z,955.23
2022-12-15T08:53:31.418Z,955.24
2022-12-15T08:54:19.953Z,955.32
2022-12-15T08:55:22.400Z,955.34
2022-12-15T08:56:18.906Z,955.41
2022-12-15T08:57:18.879Z,955.49
2022-12-15T08:58:18.894Z,955.51
2022-12-15T08:59:18.869Z,955.63
2022-12-15T09:00:18.861Z,955.53
2022-12-15T09:01:22.977Z,955.61
2022-12-15T09:02:19.973Z,955.61
2022-12-15T09:03:18.815Z,955.63
2022-12-15T09:04:18.923Z,955.64
2022-12-15T09:05:18.824Z,955.60
2022-12-15T09:06:18.783Z,955.56
2022-12-15T09:07:18.773Z,955.53
2022-12-15T09:08:18.756Z,955.52
2022-12-15T09:09:18.752Z,955.48
2022-12-15T09:10:18.738Z,955.52
2022-12-15T09:11:18.766Z,955.52
2022-12-15T09:12:18.747Z,955.48
2022-12-15T09:13:18.701Z,955.38
2022-12-15T09:14:22.793Z,955.39
2022-12-15T09:15:26.112Z,955.36
2022-12-15T09:16:19.756Z,955.36
2022-12-15T09:17:18.729Z,955.36
2022-12-15T09:18:18.687Z,955.41
2022-12-15T09:19:18.641Z,955.34
2022-12-15T09:20:18.644Z,955.39
2022-12-15T09:21:18.610Z,955.39
2022-12-15T09:22:18.616Z,955.23
2022-12-15T09:23:18.618Z,955.25
2022-12-15T09:24:28.705Z,955.20
2022-12-15T09:25:19.584Z,955.08
2022-12-15T09:26:18.589Z,955.07
2022-12-15T09:27:18.546Z,955.09
2022-12-15T09:28:18.556Z,955.06
2022-12-15T09:29:18.531Z,955.03
2022-12-15T09:30:18.530Z,955.06
2022-12-15T09:31:18.555Z,955.09
2022-12-15T09:32:18.499Z,954.99
2022-12-15T09:33:18.484Z,954.96
2022-12-15T09:34:18.479Z,954.99
2022-12-15T09:35:18.455Z,955.00
2022-12-15T09:36:18.592Z,955.07
2022-12-15T09:37:18.436Z,955.10
2022-12-15T09:38:18.451Z,955.03
2022-12-15T09:39:18.427Z,954.96
2022-12-15T09:40:18.417Z,954.88
2022-12-15T09:41:18.389Z,954.81
2022-12-15T09:42:18.439Z,954.74
2022-12-15T09:43:34.370Z,954.78
2022-12-15T09:44:19.366Z,954.75
2022-12-15T09:45:18.361Z,954.75
2022-12-15T09:46:18.419Z,954.75
2022-12-15T09:47:18.329Z,954.75
2022-12-15T09:48:18.312Z,954.82
2022-12-15T09:49:18.320Z,954.84
2022-12-15T09:50:18.294Z,954.90
2022-12-15T09:51:18.298Z,954.87
2022-12-15T09:52:18.296Z,954.88
2022-12-15T09:53:52.887Z,954.80
2022-12-15T09:54:19.245Z,954.82
2022-12-15T09:55:18.322Z,954.77
2022-12-15T09:56:18.232Z,954.77
2022-12-15T09:57:18.232Z,954.81
2022-12-15T09:58:18.210Z,954.77
2022-12-15T09:59:18.188Z,954.78
2022-12-15T10:00:18.180Z,954.83
2022-12-15T10:01:18.209Z,954.78
2022-12-15T10:02:18.343Z,954.83
2022-12-15T10:03:18.442Z,954.80
2022-12-15T10:04:18.135Z,954.79
2022-12-15T10:05:18.123Z,954.80
2022-12-15T10:06:21.086Z,954.78
2022-12-15T10:07:18.118Z,954.79
2022-12-15T10:08:18.168Z,954.80
2022-12-15T10:09:18.102Z,954.75
2022-12-15T10:10:18.072Z,954.78
2022-12-15T10:11:18.073Z,954.77
2022-12-15T10:12:18.057Z,954.75
2022-12-15T10:13:18.086Z,954.75
2022-12-15T10:14:18.048Z,954.75
2022-12-15T10:15:18.012Z,954.73
2022-12-15T10:16:18.101Z,954.74
2022-12-15T10:17:17.989Z,954.74
2022-12-15T10:18:18.000Z,954.75
2022-12-15T10:19:18.013Z,954.73
2022-12-15T10:20:17.975Z,954.75
2022-12-15T10:21:17.950Z,954.67
2022-12-15T10:22:17.942Z,954.67
2022-12-15T10:23:18.071Z,954.67
2022-12-15T10:24:37.316Z,954.64
2022-12-15T10:25:25.411Z,954.54
2022-12-15T10:26:18.890Z,954.54
2022-12-15T10:27:17.886Z,954.52
2022-12-15T10:28:17.869Z,954.47
2022-12-15T10:29:17.874Z,954.41
2022-12-15T10:30:17.940Z,954.43
2022-12-15T10:31:17.920Z,954.43
2022-12-15T10:32:17.824Z,954.35
2022-12-15T10:33:17.818Z,954.34
2022-12-15T10:34:17.837Z,954.36
2022-12-15T10:35:17.813Z,954.30
2022-12-15T10:36:17.788Z,954.28
2022-12-15T10:37:17.804Z,954.34
2022-12-15T10:38:17.758Z,954.38
2022-12-15T10:39:17.883Z,954.39
2022-12-15T10:40:17.757Z,954.39
2022-12-15T10:41:17.755Z,954.43
2022-12-15T10:42:17.725Z,954.45
2022-12-15T10:43:17.727Z,954.51
2022-12-15T10:44:17.691Z,954.48
2022-12-15T10:45:17.679Z,954.55
2022-12-15T10:46:17.791Z,954.54
2022-12-15T10:47:17.671Z,954.60
2022-12-15T10:48:17.692Z,954.59
2022-12-15T10:49:17.635Z,954.62
2022-12-15T10:50:24.067Z,954.58
2022-12-15T10:51:18.632Z,954.58
2022-12-15T10:52:17.615Z,954.54
2022-12-15T10:53:17.630Z,954.56
2022-12-15T10:54:17.590Z,954.48
2022-12-15T10:55:17.573Z,954.52
2022-12-15T10:56:17.581Z,954.52
2022-12-15T10:57:17.544Z,954.49
2022-12-15T10:58:17.563Z,954.54
2022-12-15T10:59:17.536Z,954.56
2022-12-15T11:00:17.529Z,954.49
2022-12-15T11:01:17.813Z,954.48
2022-12-15T11:02:23.064Z,954.50
2022-12-15T11:03:18.680Z,954.50
2022-12-15T11:04:17.538Z,954.48
2022-12-15T11:05:17.477Z,954.52
2022-12-15T11:06:17.445Z,954.49
2022-12-15T11:07:17.435Z,954.46
2022-12-15T11:08:17.433Z,954.41
2022-12-15T11:09:17.432Z,954.45
2022-12-15T11:10:17.423Z,954.42
2022-12-15T11:11:17.402Z,954.41
2022-12-15T11:12:17.411Z,954.41
2022-12-15T11:13:17.370Z,954.36
2022-12-15T11:14:17.358Z,954.39
2022-12-15T11:15:17.370Z,954.35
2022-12-15T11:16:17.352Z,954.28
2022-12-15T11:17:17.339Z,954.24
2022-12-15T11:18:17.311Z,954.21
2022-12-15T11:19:17.298Z,954.08
2022-12-15T11:20:17.311Z,954.04
2022-12-15T11:21:17.307Z,954.01
2022-12-15T11:22:17.295Z,954.04
2022-12-15T11:23:17.253Z,954.09
2022-12-15T11:24:17.255Z,954.16
2022-12-15T11:25:17.241Z,954.17
2022-12-15T11:26:17.255Z,954.20
2022-12-15T11:27:17.212Z,954.15
2022-12-15T11:28:17.249Z,954.21
2022-12-15T11:29:17.188Z,954.19
2022-12-15T11:30:17.180Z,954.20
2022-12-15T11:31:17.177Z,954.16
2022-12-15T11:32:17.169Z,954.21
2022-12-15T11:33:17.150Z,954.21
2022-12-15T11:34:17.168Z,954.22
2022-12-15T11:35:17.126Z,954.13
2022-12-15T11:36:17.122Z,954.15
2022-12-15T11:37:17.098Z,954.10
2022-12-15T11:38:17.090Z,954.04
2022-12-15T11:39:17.146Z,954.05
2022-12-15T11:40:17.106Z,954.01
2022-12-15T11:41:17.070Z,954.06
2022-12-15T11:42:17.055Z,954.05
2022-12-15T11:43:17.038Z,954.06
2022-12-15T11:44:17.128Z,954.07
2022-12-15T11:45:17.018Z,954.08
2022-12-15T11:46:17.040Z,954.07
2022-12-15T11:47:17.005Z,954.12
2022-12-15T11:48:16.979Z,954.05
2022-12-15T11:49:16.977Z,954.13
2022-12-15T11:50:16.960Z,954.11
2022-12-15T11:51:16.970Z,954.02
2022-12-15T11:52:16.988Z,954.05
2022-12-15T11:53:16.931Z,954.01
2022-12-15T11:54:16.913Z,953.96
2022-12-15T11:55:16.940Z,953.91
2022-12-15T11:56:16.898Z,953.95
2022-12-15T11:57:16.890Z,953.89
2022-12-15T11:58:16.875Z,953.88
2022-12-15T11:59:16.877Z,953.89
2022-12-15T12:00:16.866Z,953.95
2022-12-15T12:01:16.852Z,953.89
2022-12-15T12:02:16.929Z,953.97
2022-12-15T12:03:16.878Z,954.00
2022-12-15T12:04:16.802Z,954.04
2022-12-15T12:05:16.789Z,954.11
2022-12-15T12:06:17.197Z,954.13
2022-12-15T12:07:16.768Z,954.14
2022-12-15T12:08:16.775Z,954.10
2022-12-15T12:09:16.748Z,954.16
2022-12-15T12:10:16.743Z,954.11
2022-12-15T12:11:16.973Z,954.17
2022-12-15T12:12:16.739Z,954.24
2022-12-15T12:13:16.709Z,954.19
2022-12-15T12:14:16.708Z,954.18
2022-12-15T12:15:16.720Z,954.20
2022-12-15T12:16:16.687Z,954.20
2022-12-15T12:17:16.658Z,954.20
2022-12-15T12:18:16.678Z,954.21
2022-12-15T12:19:16.683Z,954.18
2022-12-15T12:20:16.644Z,954.27
2022-12-15T12:21:16.620Z,954.22
2022-12-15T12:22:16.604Z,954.16
2022-12-15T12:23:16.593Z,954.17
2022-12-15T12:24:16.598Z,954.12
2022-12-15T12:25:16.584Z,954.12
2022-12-15T12:26:16.590Z,954.04
2022-12-15T12:27:16.563Z,954.04
2022-12-15T12:28:16.537Z,953.99
2022-12-15T12:29:16.550Z,954.04